createdAt,value
2022-12-23T00:00:45.277Z,99234.44
2022-12-23T00:03:12.737Z,99277.44
2022-12-23T00:05:40.538Z,99279.13
2022-12-23T00:08:08.074Z,99280.09
2022-12-23T00:10:39.087Z,99277.41
2022-12-23T00:13:24.848Z,99284.53
2022-12-23T00:15:51.884Z,99292.22
2022-12-23T00:18:18.823Z,99282.66
2022-12-23T00:20:45.776Z,99287.81
2022-12-23T00:23:13.037Z,99281.75
2022-12-23T00:25:43.948Z,99275.78
2022-12-23T00:28:16.483Z,99264.34
2022-12-23T00:31:03.954Z,99268.75
2022-12-23T00:33:39.996Z,99274.63
2022-12-23T00:36:29.945Z,99267.78
2022-12-23T00:39:17.504Z,99274.44
2022-12-23T00:42:03.268Z,99269.56
2022-12-23T00:44:30.756Z,99248.91
2022-12-23T00:46:57.759Z,99220.41
2022-12-23T00:49:43.084Z,99223.91
2022-12-23T00:52:12.622Z,99228.44
2022-12-23T00:54:41.036Z,99227.34
2022-12-23T00:57:08.014Z,99225.63
2022-12-23T00:59:35.189Z,99219.72
2022-12-23T01:02:21.055Z,99215.13
2022-12-23T01:05:06.520Z,99225.41
2022-12-23T01:07:33.788Z,99236.78
2022-12-23T01:10:00.859Z,99229.88
2022-12-23T01:12:28.302Z,99225.28
2022-12-23T01:14:55.426Z,99237.41
2022-12-23T01:17:22.535Z,99233.03
2022-12-23T01:19:49.588Z,99234.72
2022-12-23T01:22:16.599Z,99242.25
2022-12-23T01:24:43.587Z,99250.88
2022-12-23T01:27:10.569Z,99243.09
2022-12-23T01:29:37.705Z,99250.69
2022-12-23T01:32:04.981Z,99253.88
2022-12-23T01:34:36.699Z,99264.25
2022-12-23T01:37:05.397Z,99267.03
2022-12-23T01:39:32.821Z,99253.47
2022-12-23T01:42:18.510Z,99247.63
2022-12-23T01:45:11.592Z,99220.78
2022-12-23T01:47:50.410Z,99230.34
2022-12-23T01:50:50.255Z,99220.97
2022-12-23T01:53:22.014Z,99214.81
2022-12-23T01:55:51.269Z,99219.22
2022-12-23T01:58:30.567Z,99217.06
2022-12-23T02:01:17.635Z,99216.22
2022-12-23T02:03:46.399Z,99217.31
2022-12-23T02:06:44.907Z,99208.59
2022-12-23T02:09:17.544Z,99211.75
2022-12-23T02:12:22.025Z,99213.56
2022-12-23T02:15:25.473Z,99204.88
2022-12-23T02:18:11.872Z,99207.41
2022-12-23T02:21:26.323Z,99209.31
2022-12-23T02:23:53.381Z,99204.19
2022-12-23T02:26:33.774Z,99204.34
2022-12-23T02:29:15.925Z,99199.09
2022-12-23T02:31:56.823Z,99201.72
2022-12-23T02:34:51.240Z,99202.38
2022-12-23T02:37:24.186Z,99208.59
2022-12-23T02:40:13.116Z,99209.47
2022-12-23T02:42:59.614Z,99206.09
2022-12-23T02:45:55.847Z,99209.66
2022-12-23T02:48:27.378Z,99210.56
2022-12-23T02:50:56.902Z,99208.81
2022-12-23T02:53:37.611Z,99192.41
2022-12-23T02:56:08.247Z,99211.59
2022-12-23T02:58:42.457Z,99209.91
2022-12-23T03:01:12.362Z,99147.41
2022-12-23T03:03:41.537Z,99209.13
2022-12-23T03:06:19.866Z,99198.78
2022-12-23T03:08:47.983Z,99207.13
2022-12-23T03:11:16.874Z,99208.09
2022-12-23T03:13:59.036Z,99217.69
2022-12-23T03:17:00.509Z,99220.38
2022-12-23T03:19:47.699Z,99220.25
2022-12-23T03:22:38.606Z,99215.31
2022-12-23T03:25:23.482Z,99216.44
2022-12-23T03:28:09.514Z,99217.28
2022-12-23T03:30:39.493Z,99204.94
2022-12-23T03:33:17.221Z,99209.25
2022-12-23T03:35:50.144Z,99207.56
2022-12-23T03:38:19.479Z,99215.53
2022-12-23T03:40:55.551Z,99216.72
2022-12-23T03:43:29.032Z,99222.78
2022-12-23T03:46:03.414Z,99204.63
2022-12-23T03:48:37.094Z,99222.84
2022-12-23T03:51:19.348Z,99228.06
2022-12-23T03:53:54.961Z,99197.66
2022-12-23T03:56:48.161Z,99212.94
2022-12-23T03:59:21.646Z,99208.41
2022-12-23T04:02:07.017Z,99224.00
2022-12-23T04:04:40.155Z,99218.84
2022-12-23T04:07:15.760Z,99215.34
2022-12-23T04:09:43.619Z,99163.00
2022-12-23T04:12:10.967Z,99218.78
2022-12-23T04:14:45.322Z,99220.41
2022-12-23T04:17:12.332Z,99210.88
2022-12-23T04:19:39.293Z,99211.97
2022-12-23T04:22:06.311Z,99204.41
2022-12-23T04:24:33.323Z,99200.66
2022-12-23T04:27:00.295Z,99198.72
2022-12-23T04:29:27.224Z,99208.56
2022-12-23T04:31:54.193Z,99214.63
2022-12-23T04:34:21.216Z,99213.88
2022-12-23T04:36:48.231Z,99197.31
2022-12-23T04:39:15.281Z,99205.09
2022-12-23T04:41:42.229Z,99212.09
2022-12-23T04:44:09.320Z,99209.28
2022-12-23T04:46:36.308Z,99204.97
2022-12-23T04:49:03.389Z,99175.13
2022-12-23T04:51:30.340Z,99216.97
2022-12-23T04:53:57.289Z,99193.59
2022-12-23T04:56:24.410Z,99192.88
2022-12-23T04:58:51.438Z,99205.09
2022-12-23T05:01:18.416Z,99171.22
2022-12-23T05:03:45.405Z,99180.53
2022-12-23T05:06:12.414Z,99196.38
2022-12-23T05:08:39.434Z,99203.28
2022-12-23T05:11:06.460Z,99197.19
2022-12-23T05:13:33.435Z,99198.97
2022-12-23T05:16:00.483Z,99189.53
2022-12-23T05:18:27.572Z,99180.81
2022-12-23T05:20:54.559Z,99154.94
2022-12-23T05:23:21.520Z,99179.03
2022-12-23T05:25:53.192Z,99176.41
2022-12-23T05:28:22.162Z,99187.81
2022-12-23T05:30:49.138Z,99187.94
2022-12-23T05:33:16.177Z,99182.88
2022-12-23T05:35:43.219Z,99183.59
2022-12-23T05:38:10.172Z,99186.19
2022-12-23T05:40:37.137Z,99171.63
2022-12-23T05:43:04.219Z,99182.81
2022-12-23T05:45:31.231Z,99165.38
2022-12-23T05:47:58.235Z,99178.56
2022-12-23T05:50:25.169Z,99165.53
2022-12-23T05:52:52.125Z,99174.44
2022-12-23T05:55:19.065Z,99122.03
2022-12-23T05:57:46.051Z,99163.09
2022-12-23T06:00:14.131Z,99181.47
2022-12-23T06:02:41.279Z,99180.66
2022-12-23T06:05:08.936Z,99164.28
2022-12-23T06:07:36.010Z,99166.00
2022-12-23T06:10:03.495Z,99150.41
2022-12-23T06:12:30.541Z,99165.13
2022-12-23T06:14:57.500Z,99141.16
2022-12-23T06:17:24.456Z,99170.09
2022-12-23T06:19:51.459Z,99161.41
2022-12-23T06:22:21.123Z,99170.88
2022-12-23T06:24:48.464Z,99151.94
2022-12-23T06:27:15.722Z,99159.00
2022-12-23T06:29:42.783Z,99160.88
2022-12-23T06:32:09.936Z,99140.72
2022-12-23T06:34:36.952Z,99166.00
2022-12-23T06:37:03.967Z,99162.56
2022-12-23T06:39:30.943Z,99152.22
2022-12-23T06:41:57.970Z,99103.38
2022-12-23T06:44:24.906Z,99158.16
2022-12-23T06:46:51.885Z,99151.13
2022-12-23T06:49:18.862Z,99172.09
2022-12-23T06:51:45.791Z,99168.56
2022-12-23T06:54:13.017Z,99169.41
2022-12-23T06:56:40.148Z,99166.00
2022-12-23T06:59:07.204Z,99167.63
2022-12-23T07:01:34.373Z,99171.13
2022-12-23T07:04:02.132Z,99168.50
2022-12-23T07:06:29.597Z,99163.09
2022-12-23T07:08:56.581Z,99169.47
2022-12-23T07:11:23.522Z,99134.66
2022-12-23T07:13:50.692Z,99159.78
2022-12-23T07:16:17.759Z,99159.88
2022-12-23T07:18:44.847Z,99159.13
2022-12-23T07:21:20.024Z,99151.53
2022-12-23T07:23:51.810Z,99148.97
2022-12-23T07:26:18.854Z,99146.56
2022-12-23T07:28:48.278Z,99145.84
2022-12-23T07:31:16.504Z,99145.94
2022-12-23T07:33:43.631Z,99147.81
2022-12-23T07:36:11.040Z,99147.91
2022-12-23T07:38:37.998Z,99153.88
2022-12-23T07:41:05.161Z,99142.78
2022-12-23T07:43:32.120Z,99143.69
2022-12-23T07:46:00.839Z,99145.38
2022-12-23T07:48:28.300Z,99146.22
2022-12-23T07:51:01.768Z,99135.03
2022-12-23T07:53:28.973Z,99125.59
2022-12-23T07:55:57.034Z,99130.59
2022-12-23T07:58:25.082Z,99126.13
2022-12-23T08:00:59.799Z,99130.75
2022-12-23T08:03:26.868Z,99118.44
2022-12-23T08:06:09.028Z,99132.56
2022-12-23T08:08:36.254Z,99113.44
2022-12-23T08:11:05.477Z,99116.13
2022-12-23T08:13:34.628Z,99129.25
2022-12-23T08:16:03.068Z,99120.59
2022-12-23T08:18:31.997Z,99130.00
2022-12-23T08:21:04.507Z,99134.25
2022-12-23T08:23:32.350Z,99097.84
2022-12-23T08:26:04.559Z,99130.19
2022-12-23T08:28:32.243Z,99118.78
2022-12-23T08:31:05.201Z,99125.78
2022-12-23T08:33:32.387Z,99109.94
2022-12-23T08:35:59.802Z,99120.34
2022-12-23T08:38:26.787Z,99107.34
2022-12-23T08:40:53.763Z,99115.84
2022-12-23T08:43:20.764Z,99115.28
2022-12-23T08:45:47.820Z,99107.53
2022-12-23T08:48:15.279Z,99119.53
2022-12-23T08:50:44.884Z,99098.00
2022-12-23T08:53:13.426Z,99113.44
2022-12-23T08:55:43.502Z,99106.00
2022-12-23T08:58:11.278Z,99101.06
2022-12-23T09:00:39.051Z,99102.13
2022-12-23T09:03:06.689Z,99103.81
2022-12-23T09:05:34.571Z,99104.63
2022-12-23T09:08:02.268Z,99081.16
2022-12-23T09:10:29.396Z,99101.72
2022-12-23T09:12:58.093Z,99098.44
2022-12-23T09:15:25.364Z,99092.56
2022-12-23T09:17:52.321Z,99085.66
2022-12-23T09:20:19.281Z,99082.94
2022-12-23T09:22:46.272Z,99065.69
2022-12-23T09:25:14.292Z,99022.75
2022-12-23T09:27:41.382Z,99042.69
2022-12-23T09:30:10.354Z,99075.72
2022-12-23T09:32:37.310Z,99068.09
2022-12-23T09:35:04.865Z,99068.97
2022-12-23T09:37:31.839Z,99057.69
2022-12-23T09:39:58.875Z,99070.75
2022-12-23T09:42:31.255Z,99065.69
2022-12-23T09:45:25.955Z,99071.81
2022-12-23T09:47:55.631Z,99063.28
2022-12-23T09:50:28.938Z,99058.94
2022-12-23T09:53:13.273Z,99052.16
2022-12-23T09:55:49.150Z,99053.00
2022-12-23T09:58:38.065Z,99036.94
2022-12-23T10:01:14.428Z,99021.94
2022-12-23T10:03:44.258Z,99030.66
2022-12-23T10:06:20.078Z,99031.66
2022-12-23T10:08:54.802Z,99034.53
2022-12-23T10:11:26.708Z,99005.91
2022-12-23T10:14:00.199Z,99025.19
2022-12-23T10:16:35.823Z,99000.31
2022-12-23T10:19:08.771Z,99005.63
2022-12-23T10:21:54.997Z,98989.44
2022-12-23T10:24:24.618Z,98991.09
2022-12-23T10:26:53.139Z,98953.75
2022-12-23T10:29:23.064Z,98972.06
2022-12-23T10:31:58.862Z,98984.28
2022-12-23T10:34:56.411Z,98980.81
2022-12-23T10:37:33.627Z,98974.84
2022-12-23T10:40:22.433Z,98970.56
2022-12-23T10:43:26.964Z,98965.28
2022-12-23T10:46:11.912Z,98960.16
2022-12-23T10:49:00.262Z,98952.38
2022-12-23T10:51:49.562Z,98937.47
2022-12-23T10:54:37.206Z,98942.88
2022-12-23T10:57:05.470Z,98953.38
2022-12-23T10:59:35.054Z,98967.72
2022-12-23T11:02:27.295Z,98965.25
2022-12-23T11:04:54.550Z,98961.44
2022-12-23T11:07:44.164Z,98972.78
2022-12-23T11:10:22.137Z,98970.34
2022-12-23T11:12:51.803Z,98954.63
2022-12-23T11:15:39.533Z,98945.06
2022-12-23T11:18:12.586Z,98968.06
2022-12-23T11:20:42.332Z,98964.59
2022-12-23T11:23:28.874Z,98908.75
2022-12-23T11:26:07.886Z,98965.50
2022-12-23T11:28:47.769Z,98969.84
2022-12-23T11:31:17.130Z,98976.44
2022-12-23T11:34:11.106Z,98966.16
2022-12-23T11:36:38.614Z,98957.47
2022-12-23T11:39:14.440Z,98961.22
2022-12-23T11:41:50.339Z,98964.28
2022-12-23T11:44:32.420Z,98962.72
2022-12-23T11:47:17.400Z,98963.59
2022-12-23T11:49:53.978Z,98972.22
2022-12-23T11:52:23.778Z,98965.31
2022-12-23T11:54:57.209Z,98979.22
2022-12-23T11:57:47.054Z,98963.84
2022-12-23T12:00:24.885Z,98956.06
2022-12-23T12:03:03.752Z,98957.16
2022-12-23T12:05:41.394Z,98953.94
2022-12-23T12:08:15.379Z,98948.88
2022-12-23T12:10:43.315Z,98949.72
2022-12-23T12:13:28.085Z,98953.94
2022-12-23T12:16:01.125Z,98956.50
2022-12-23T12:18:29.246Z,98949.50
2022-12-23T12:21:01.753Z,98945.25
2022-12-23T12:23:48.220Z,98939.41
2022-12-23T12:26:25.959Z,98937.50
2022-12-23T12:29:31.300Z,98944.50
2022-12-23T12:32:00.227Z,98880.75
2022-12-23T12:34:45.757Z,98939.94
2022-12-23T12:37:12.661Z,98937.97
2022-12-23T12:39:51.726Z,98924.13
2022-12-23T12:42:29.228Z,98929.44
2022-12-23T12:45:03.712Z,98918.94
2022-12-23T12:48:00.196Z,98919.03
2022-12-23T12:50:34.897Z,98905.91
2022-12-23T12:53:13.668Z,98927.75
2022-12-23T12:55:46.492Z,98933.84
2022-12-23T12:58:21.907Z,98931.31
2022-12-23T13:01:14.976Z,98921.84
2022-12-23T13:04:14.489Z,98915.19
2022-12-23T13:07:05.701Z,98922.00
2022-12-23T13:09:53.058Z,98924.56
2022-12-23T13:12:20.036Z,98919.41
2022-12-23T13:15:08.994Z,98907.53
2022-12-23T13:17:51.042Z,98913.38
2022-12-23T13:21:04.339Z,98916.78
2022-12-23T13:24:04.056Z,98912.53
2022-12-23T13:26:51.659Z,98909.81
2022-12-23T13:29:58.299Z,98922.84
2022-12-23T13:32:54.670Z,98920.38
2022-12-23T13:35:43.583Z,98916.84
2022-12-23T13:39:07.847Z,98921.03
2022-12-23T13:41:40.915Z,98920.00
2022-12-23T13:44:10.812Z,98914.69
2022-12-23T13:46:55.080Z,98921.09
2022-12-23T13:49:33.910Z,98918.63
2022-12-23T13:52:08.500Z,98910.00
2022-12-23T13:55:03.157Z,98895.47
2022-12-23T13:57:59.908Z,98894.69
2022-12-23T14:00:30.995Z,98890.28
2022-12-23T14:02:57.945Z,98904.75
2022-12-23T14:05:46.929Z,98905.34
2022-12-23T14:08:19.910Z,98890.78
2022-12-23T14:11:12.781Z,98893.78
2022-12-23T14:13:52.184Z,98893.91
2022-12-23T14:16:21.893Z,98906.00
2022-12-23T14:19:16.498Z,98898.28
2022-12-23T14:22:08.048Z,98867.97
2022-12-23T14:24:45.502Z,98892.34
2022-12-23T14:27:24.594Z,98898.28
2022-12-23T14:32:50.733Z,98886.97
2022-12-23T14:35:38.599Z,98886.25
2022-12-23T14:38:15.252Z,98888.41
2022-12-23T14:40:42.199Z,98879.97
2022-12-23T14:43:32.832Z,98883.66
2022-12-23T14:46:05.984Z,98879.38
2022-12-23T14:48:36.201Z,98888.88
2022-12-23T14:51:10.226Z,98878.66
2022-12-23T14:53:53.873Z,98853.50
2022-12-23T14:56:28.798Z,98861.44
2022-12-23T14:59:05.237Z,98866.56
2022-12-23T15:01:42.676Z,98861.47
2022-12-23T15:04:24.302Z,98833.84
2022-12-23T15:06:55.732Z,98836.56
2022-12-23T15:09:28.786Z,98840.88
2022-12-23T15:11:59.892Z,98833.13
2022-12-23T15:14:57.393Z,98850.13
2022-12-23T15:17:27.954Z,98852.59
2022-12-23T15:20:22.406Z,98842.16
2022-12-23T15:22:49.872Z,98848.19
2022-12-23T15:25:26.567Z,98862.13
2022-12-23T15:28:01.496Z,98860.31
2022-12-23T15:30:46.303Z,98866.38
2022-12-23T15:33:51.817Z,98843.91
2022-12-23T15:36:06.653Z,98856.09
2022-12-23T15:38:37.683Z,98854.44
2022-12-23T15:41:15.544Z,98856.09
2022-12-23T15:43:43.518Z,98837.84
2022-12-23T15:46:21.930Z,98856.22
2022-12-23T15:48:52.694Z,98854.50
2022-12-23T15:54:34.292Z,98854.56
2022-12-23T15:57:03.360Z,98826.00
2022-12-23T15:59:37.813Z,98839.16
2022-12-23T16:02:40.457Z,98847.88
2022-12-23T16:05:00.799Z,98828.84
2022-12-23T16:07:37.054Z,98835.53
2022-12-23T16:10:24.447Z,98830.56
2022-12-23T16:12:52.137Z,98826.16
2022-12-23T16:15:33.377Z,98824.47
2022-12-23T16:18:19.237Z,98823.78
2022-12-23T16:20:49.971Z,98814.22
2022-12-23T16:23:17.933Z,98818.59
2022-12-23T16:25:50.399Z,98802.19
2022-12-23T16:28:30.029Z,98840.03
2022-12-23T16:30:58.588Z,98832.31
2022-12-23T16:33:51.496Z,98817.47
2022-12-23T16:36:27.762Z,98831.41
2022-12-23T16:39:06.743Z,98835.03
2022-12-23T16:41:34.978Z,98812.47
2022-12-23T16:44:02.847Z,98829.78
2022-12-23T16:46:37.033Z,98812.59
2022-12-23T16:49:08.493Z,98829.13
2022-12-23T16:51:38.544Z,98818.06
2022-12-23T16:54:06.277Z,98825.84
2022-12-23T16:56:37.970Z,98815.53
2022-12-23T16:59:05.388Z,98820.56
2022-12-23T17:01:35.183Z,98822.94
2022-12-23T17:04:02.719Z,98816.91
2022-12-23T17:06:29.797Z,98812.56
2022-12-23T17:08:57.154Z,98828.28
2022-12-23T17:11:38.652Z,98826.66
2022-12-23T17:14:13.530Z,98822.31
2022-12-23T17:16:42.709Z,98830.97
2022-12-23T17:19:09.852Z,98825.72
2022-12-23T17:21:39.184Z,98803.28
2022-12-23T17:24:25.509Z,98825.84
2022-12-23T17:26:53.952Z,98833.59
2022-12-23T17:29:20.980Z,98827.72
2022-12-23T17:31:49.058Z,98836.28
2022-12-23T17:34:20.818Z,98828.56
2022-12-23T17:36:50.763Z,98819.00
2022-12-23T17:39:19.707Z,98824.28
2022-12-23T17:41:46.869Z,98824.31
2022-12-23T17:44:15.425Z,98820.84
2022-12-23T17:46:43.187Z,98825.09
2022-12-23T17:49:10.218Z,98830.09
2022-12-23T17:51:39.655Z,98834.41
2022-12-23T17:54:06.867Z,98834.41
2022-12-23T17:56:33.890Z,98766.78
2022-12-23T17:59:00.911Z,98825.88
2022-12-23T18:01:30.470Z,98820.63
2022-12-23T18:03:59.046Z,98814.38
2022-12-23T18:06:28.128Z,98830.84
2022-12-23T18:08:57.201Z,98832.66
2022-12-23T18:11:36.507Z,98818.88
2022-12-23T18:14:04.229Z,98824.25
2022-12-23T18:16:31.452Z,98831.81
2022-12-23T18:18:58.611Z,98837.81
2022-12-23T18:21:28.807Z,98843.81
2022-12-23T18:23:58.847Z,98855.72
2022-12-23T18:26:26.312Z,98842.13
2022-12-23T18:28:54.441Z,98839.63
2022-12-23T18:31:27.495Z,98838.84
2022-12-23T18:33:54.953Z,98843.97
2022-12-23T18:36:28.453Z,98824.00
2022-12-23T18:38:57.253Z,98833.56
2022-12-23T18:41:26.101Z,98841.38
2022-12-23T18:43:53.788Z,98832.75
2022-12-23T18:46:21.440Z,98838.81
2022-12-23T18:48:48.722Z,98840.41
2022-12-23T18:51:17.593Z,98832.50
2022-12-23T18:53:46.564Z,98840.34
2022-12-23T18:56:15.222Z,98772.69
2022-12-23T18:58:42.619Z,98835.25
2022-12-23T19:01:14.626Z,98832.63
2022-12-23T19:03:42.683Z,98835.13
2022-12-23T19:06:13.410Z,98842.94
2022-12-23T19:08:41.845Z,98843.66
2022-12-23T19:11:17.808Z,98850.66
2022-12-23T19:13:45.604Z,98849.84
2022-12-23T19:16:18.387Z,98842.06
2022-12-23T19:18:46.705Z,98842.25
2022-12-23T19:21:14.401Z,98838.75
2022-12-23T19:23:42.049Z,98849.97
2022-12-23T19:26:14.271Z,98850.78
2022-12-23T19:28:42.078Z,98850.69
2022-12-23T19:31:10.920Z,98854.06
2022-12-23T19:33:42.827Z,98845.38
2022-12-23T19:36:22.995Z,98857.53
2022-12-23T19:38:50.420Z,98845.47
2022-12-23T19:41:18.666Z,98850.81
2022-12-23T19:43:47.119Z,98857.66
2022-12-23T19:46:15.446Z,98856.00
2022-12-23T19:48:42.836Z,98861.34
2022-12-23T19:51:14.387Z,98863.97
2022-12-23T19:53:42.180Z,98837.94
2022-12-23T19:56:14.483Z,98878.56
2022-12-23T19:58:44.180Z,98877.72
2022-12-23T20:01:17.264Z,98877.59
2022-12-23T20:03:46.181Z,98887.13
2022-12-23T20:06:22.027Z,98893.16
2022-12-23T20:08:52.655Z,98879.22
2022-12-23T20:11:26.233Z,98894.78
2022-12-23T20:13:54.703Z,98893.97
2022-12-23T20:16:22.763Z,98891.34
2022-12-23T20:18:49.926Z,98898.09
2022-12-23T20:21:17.202Z,98905.94
2022-12-23T20:23:44.188Z,98904.25
2022-12-23T20:26:13.116Z,98899.94
2022-12-23T20:28:40.627Z,98880.06
2022-12-23T20:31:26.953Z,98895.66
2022-12-23T20:33:54.734Z,98881.78
2022-12-23T20:36:27.851Z,98906.88
2022-12-23T20:38:56.250Z,98904.38
2022-12-23T20:41:26.475Z,98903.50
2022-12-23T20:44:31.599Z,98893.13
2022-12-23T20:46:41.157Z,98916.41
2022-12-23T20:49:08.220Z,98917.31
2022-12-23T20:51:35.160Z,98917.25
2022-12-23T20:54:02.176Z,98913.84
2022-12-23T20:56:30.512Z,98914.75
2022-12-23T20:58:59.391Z,98921.63
2022-12-23T21:01:28.392Z,98918.19
2022-12-23T21:03:56.945Z,98909.34
2022-12-23T21:06:24.747Z,98860.75
2022-12-23T21:08:52.514Z,98933.72
2022-12-23T21:11:19.527Z,98936.28
2022-12-23T21:13:50.597Z,98889.16
2022-12-23T21:16:18.675Z,98941.53
2022-12-23T21:18:53.634Z,98933.81
2022-12-23T21:21:23.738Z,98886.75
2022-12-23T21:23:50.861Z,98932.78
2022-12-23T21:26:20.523Z,98933.59
2022-12-23T21:28:48.859Z,98948.47
2022-12-23T21:31:19.068Z,98952.72
2022-12-23T21:33:47.697Z,98955.31
2022-12-23T21:36:20.222Z,98967.31
2022-12-23T21:38:49.288Z,98943.94
2022-12-23T21:41:19.919Z,98928.22
2022-12-23T21:43:47.571Z,98909.16
2022-12-23T21:46:17.235Z,98952.78
2022-12-23T21:48:44.975Z,98946.59
2022-12-23T21:51:16.767Z,98963.00
2022-12-23T21:53:45.478Z,98941.22
2022-12-23T21:56:16.224Z,98951.69
2022-12-23T21:58:43.512Z,98954.38
2022-12-23T22:01:13.652Z,98952.59
2022-12-23T22:03:41.550Z,98943.06
2022-12-23T22:06:14.184Z,98973.31
2022-12-23T22:08:42.071Z,98974.13
2022-12-23T22:11:17.227Z,98982.56
2022-12-23T22:13:45.090Z,98972.25
2022-12-23T22:16:14.677Z,98970.59
2022-12-23T22:18:42.742Z,98952.28
2022-12-23T22:21:21.596Z,98985.25
2022-12-23T22:23:50.030Z,98963.53
2022-12-23T22:26:25.279Z,98926.91
2022-12-23T22:28:55.041Z,98996.38
2022-12-23T22:31:27.313Z,98992.94
2022-12-23T22:33:54.516Z,98999.81
2022-12-23T22:36:21.677Z,98993.75
2022-12-23T22:38:57.698Z,99005.75
2022-12-23T22:41:28.077Z,99008.16
2022-12-23T22:43:56.113Z,99018.41
2022-12-23T22:46:24.654Z,99015.84
2022-12-23T22:48:52.774Z,98994.09
2022-12-23T22:51:23.082Z,99003.72
2022-12-23T22:53:50.918Z,99007.38
2022-12-23T22:56:19.548Z,99003.00
2022-12-23T22:58:47.474Z,99015.00
2022-12-23T23:01:23.903Z,99015.91
2022-12-23T23:03:57.334Z,99016.56
2022-12-23T23:06:26.654Z,99017.47
2022-12-23T23:08:54.959Z,98975.66
2022-12-23T23:11:22.814Z,99023.19
2022-12-23T23:13:49.756Z,99000.69
2022-12-23T23:16:16.750Z,99033.66
2022-12-23T23:18:44.072Z,99031.97
2022-12-23T23:21:13.293Z,99044.06
2022-12-23T23:23:40.389Z,99051.78
2022-12-23T23:26:10.309Z,99035.41
2022-12-23T23:28:39.461Z,99037.94
2022-12-23T23:31:40.621Z,99038.88
2022-12-23T23:33:54.281Z,99044.06
2022-12-23T23:36:21.509Z,99042.88
2022-12-23T23:38:48.530Z,99040.53
2022-12-23T23:41:20.616Z,99054.22
2022-12-23T23:43:50.079Z,99057.81
2022-12-23T23:46:17.246Z,99067.38
2022-12-23T23:48:44.303Z,99068.88
2022-12-23T23:51:12.653Z,99062.91
2022-12-23T23:53:40.495Z,99069.09
2022-12-23T23:56:08.544Z,99021.44
2022-12-23T23:58:36.886Z,99065.59
